Friday, April 25, 2014
02:26 UTC
  |  Log In   |  Register Free
Airport Search:

Coffeyville Municipal Airport
(KCFV)

Coffeyville Municipal Airport Diagram
No Airport Diagram Available

FAA data valid effective April 3, 2014 until May 29, 2014 (unless otherwise noted).

 
 
 
 
 
 
 
 
 
 
 
 
 
 

Current Aviation Weather for Coffeyville Municipal Airport (KCFV)

The most recent METAR observation for KCFV was updated at: 0152 UTC
METAR Summary (Translated METAR)
KCFV
250152Z AUTO 28006KT 10SM CLR 13/06 A2989 RMK AO2 SLP117 T01330061
KPPF
(14.6 nm NE from KCFV)
250152Z AUTO 26005KT 10SM CLR 11/07 A2989 RMK AO2 SLP116 T01110067 TSNO
TAF Summary (Translated TAF)
KBVO
(28.9 nm SW from KCFV)
242128Z 2421/2518 31007G16KT P6SM BKN070 FM250000 00000KT P6SM SKC
  Airport Weather Conditions for KCFV

 Current Weather at CFV
56° F
Fair
West winds at 6.9 mph
CFV NOAA Radar

Pressure: 29.89 in
Humidity: 62%
Wind: West at 6.9 MPH (6 KT)
Dew Point: 43.0°F
Visibility: 10.00 mi


Airport Weather Forecast for KCFV

Translated METAR and TAF for KCFV
Translated METAR for KCFV (0226 UTC 25 April 2014)
found at http://aviationweather.gov/adds/metars/
 
METAR text: KCFV 250152Z AUTO 28006KT 10SM CLR 13/06 A2989 RMK AO2 SLP117 T01330061
Conditions at: KCFV (COFFEYVILLE , KS, US) observed 0152 UTC 25 April 2014
Temperature: 13.3°C (56°F)
Dewpoint: 6.1°C (43°F) [RH = 62%]
Pressure (altimeter): 29.89 inches Hg (1012.3 mb)
[Sea-level pressure: 1011.7 mb]
Winds: from the W (280 degrees) at 7 MPH (6 knots; 3.1 m/s)
Visibility: 10 or more miles (16+ km)
Ceiling: at least 12,000 feet AGL
Clouds: sky clear below 12,000 feet AGL
Weather: automated observation with no human augmentation;
there may or may not be significant weather present at this time
Translated TAF for KCFV

There is no translated TAF available for this airport

Find All Airport Services Find A Hotel Find A Rental Car Find A Golf Course Find A Restaurant $100 Hamburger



FBO's on the Field
FBO Company Facility Photos Services Transportation Aviation Fuel Prices: Prices include tax
Catering Weather Repair Courtesy Rental Type 100LL JetA JetA+ MOGAS 8087
 
Coffeyville Aircraft, Inc

This FBO has not yet been rated
FS:Phillips66
Last Updated: Apr-16
Login to update fuel prices
SS:
Contact Coffeyville Aircraft, IncMore FBO Information
 
Add another FBO Facility Photos Catering Weather Repair Courtesy Rental Type 100LL JetA JetA+ MOGAS 8087
Services Transportation Aviation Fuel Prices: Prices include tax


GlobalAir.com Airport Resource Center model-print
model-print
model-print
model-print